sensor_id;sensor_type;location;lat;lon;timestamp;temperature;humidity
58469;DHT22;44257;44.804;10.220;2023-02-26T00:01:24;11.20;99.90
58469;DHT22;44257;44.804;10.220;2023-02-26T00:03:51;11.20;99.90
58469;DHT22;44257;44.804;10.220;2023-02-26T00:06:18;11.20;99.90
58469;DHT22;44257;44.804;10.220;2023-02-26T00:08:44;11.20;99.90
58469;DHT22;44257;44.804;10.220;2023-02-26T00:11:10;11.20;99.90
58469;DHT22;44257;44.804;10.220;2023-02-26T00:13:38;11.20;99.90
58469;DHT22;44257;44.804;10.220;2023-02-26T00:18:44;11.20;99.90
58469;DHT22;44257;44.804;10.220;2023-02-26T00:21:18;11.20;99.90
58469;DHT22;44257;44.804;10.220;2023-02-26T00:23:45;11.20;99.90
58469;DHT22;44257;44.804;10.220;2023-02-26T00:26:11;11.20;99.90
58469;DHT22;44257;44.804;10.220;2023-02-26T00:28:37;11.20;99.90
58469;DHT22;44257;44.804;10.220;2023-02-26T00:31:04;11.20;99.90
58469;DHT22;44257;44.804;10.220;2023-02-26T00:33:30;11.20;99.90
58469;DHT22;44257;44.804;10.220;2023-02-26T00:36:08;11.20;99.90
58469;DHT22;44257;44.804;10.220;2023-02-26T00:38:38;11.20;99.90
58469;DHT22;44257;44.804;10.220;2023-02-26T00:41:07;11.20;99.90
58469;DHT22;44257;44.804;10.220;2023-02-26T00:43:33;11.20;99.90
58469;DHT22;44257;44.804;10.220;2023-02-26T00:48:58;11.20;99.90
58469;DHT22;44257;44.804;10.220;2023-02-26T00:51:51;11.20;99.90
58469;DHT22;44257;44.804;10.220;2023-02-26T00:54:29;11.20;99.90
58469;DHT22;44257;44.804;10.220;2023-02-26T00:56:56;11.20;99.90
58469;DHT22;44257;44.804;10.220;2023-02-26T00:59:22;11.20;99.90
58469;DHT22;44257;44.804;10.220;2023-02-26T01:01:49;11.20;99.90
58469;DHT22;44257;44.804;10.220;2023-02-26T01:04:17;11.20;99.90
58469;DHT22;44257;44.804;10.220;2023-02-26T01:06:47;11.20;99.90
58469;DHT22;44257;44.804;10.220;2023-02-26T01:09:26;11.20;99.90
58469;DHT22;44257;44.804;10.220;2023-02-26T01:11:54;11.20;99.90
58469;DHT22;44257;44.804;10.220;2023-02-26T01:14:21;11.20;99.90
58469;DHT22;44257;44.804;10.220;2023-02-26T01:22:21;11.20;99.90
58469;DHT22;44257;44.804;10.220;2023-02-26T01:24:55;11.10;99.90
58469;DHT22;44257;44.804;10.220;2023-02-26T01:27:24;11.10;99.90
58469;DHT22;44257;44.804;10.220;2023-02-26T01:29:50;11.10;99.90
58469;DHT22;44257;44.804;10.220;2023-02-26T01:32:24;11.10;99.90
58469;DHT22;44257;44.804;10.220;2023-02-26T01:35:00;11.10;99.90
58469;DHT22;44257;44.804;10.220;2023-02-26T01:37:32;11.10;99.90
58469;DHT22;44257;44.804;10.220;2023-02-26T01:40:19;11.10;99.90
58469;DHT22;44257;44.804;10.220;2023-02-26T01:42:52;11.10;99.90
58469;DHT22;44257;44.804;10.220;2023-02-26T01:48:50;11.10;99.90
58469;DHT22;44257;44.804;10.220;2023-02-26T01:51:17;11.10;99.90
58469;DHT22;44257;44.804;10.220;2023-02-26T01:53:42;11.10;99.90
58469;DHT22;44257;44.804;10.220;2023-02-26T01:56:13;11.10;99.90
58469;DHT22;44257;44.804;10.220;2023-02-26T01:58:40;11.10;99.90
58469;DHT22;44257;44.804;10.220;2023-02-26T02:01:06;11.10;99.90
58469;DHT22;44257;44.804;10.220;2023-02-26T02:03:35;11.10;99.90
58469;DHT22;44257;44.804;10.220;2023-02-26T02:06:08;11.10;99.90
58469;DHT22;44257;44.804;10.220;2023-02-26T02:08:35;11.10;99.90
58469;DHT22;44257;44.804;10.220;2023-02-26T02:11:03;11.10;99.90
58469;DHT22;44257;44.804;10.220;2023-02-26T02:13:52;11.10;99.90
58469;DHT22;44257;44.804;10.220;2023-02-26T02:16:46;11.10;99.90
58469;DHT22;44257;44.804;10.220;2023-02-26T02:24:51;11.00;99.90
58469;DHT22;44257;44.804;10.220;2023-02-26T02:27:46;11.00;99.90
58469;DHT22;44257;44.804;10.220;2023-02-26T02:32:57;11.10;99.90
58469;DHT22;44257;44.804;10.220;2023-02-26T02:35:31;11.10;99.90
58469;DHT22;44257;44.804;10.220;2023-02-26T02:40:34;11.10;99.90
58469;DHT22;44257;44.804;10.220;2023-02-26T02:43:15;11.10;99.90
58469;DHT22;44257;44.804;10.220;2023-02-26T02:45:50;11.00;99.90
58469;DHT22;44257;44.804;10.220;2023-02-26T02:48:28;11.00;99.90
58469;DHT22;44257;44.804;10.220;2023-02-26T02:51:05;11.00;99.90
58469;DHT22;44257;44.804;10.220;2023-02-26T02:53:50;11.00;99.90
58469;DHT22;44257;44.804;10.220;2023-02-26T02:56:23;11.00;99.90
58469;DHT22;44257;44.804;10.220;2023-02-26T02:58:59;11.00;99.90
58469;DHT22;44257;44.804;10.220;2023-02-26T03:01:28;10.90;99.90
58469;DHT22;44257;44.804;10.220;2023-02-26T03:06:22;10.90;99.90
58469;DHT22;44257;44.804;10.220;2023-02-26T03:08:49;10.90;99.90
58469;DHT22;44257;44.804;10.220;2023-02-26T03:11:16;10.90;99.90
58469;DHT22;44257;44.804;10.220;2023-02-26T03:13:43;10.90;99.90
58469;DHT22;44257;44.804;10.220;2023-02-26T03:19:17;10.90;99.90
58469;DHT22;44257;44.804;10.220;2023-02-26T03:22:16;10.90;99.90
58469;DHT22;44257;44.804;10.220;2023-02-26T03:30:33;11.00;99.90
58469;DHT22;44257;44.804;10.220;2023-02-26T03:35:35;11.00;99.90
58469;DHT22;44257;44.804;10.220;2023-02-26T03:38:07;11.10;99.90
58469;DHT22;44257;44.804;10.220;2023-02-26T03:41:01;11.10;99.90
58469;DHT22;44257;44.804;10.220;2023-02-26T03:43:46;11.10;99.90
58469;DHT22;44257;44.804;10.220;2023-02-26T03:46:21;11.10;99.90
58469;DHT22;44257;44.804;10.220;2023-02-26T03:48:49;11.10;99.90
58469;DHT22;44257;44.804;10.220;2023-02-26T03:51:17;11.00;99.90
58469;DHT22;44257;44.804;10.220;2023-02-26T03:54:26;10.90;99.90
58469;DHT22;44257;44.804;10.220;2023-02-26T03:57:08;10.80;99.90
58469;DHT22;44257;44.804;10.220;2023-02-26T04:00:05;10.70;99.90
58469;DHT22;44257;44.804;10.220;2023-02-26T04:03:18;10.60;99.90
58469;DHT22;44257;44.804;10.220;2023-02-26T04:05:48;10.50;99.90
58469;DHT22;44257;44.804;10.220;2023-02-26T04:08:15;10.40;99.90
58469;DHT22;44257;44.804;10.220;2023-02-26T04:10:46;10.30;99.90
58469;DHT22;44257;44.804;10.220;2023-02-26T04:13:17;9.80;99.90
58469;DHT22;44257;44.804;10.220;2023-02-26T04:15:42;9.30;99.90
58469;DHT22;44257;44.804;10.220;2023-02-26T04:18:08;8.80;99.90
58469;DHT22;44257;44.804;10.220;2023-02-26T04:20:34;8.40;99.90
58469;DHT22;44257;44.804;10.220;2023-02-26T04:23:00;8.00;99.90
58469;DHT22;44257;44.804;10.220;2023-02-26T04:25:26;7.70;99.90
58469;DHT22;44257;44.804;10.220;2023-02-26T04:27:52;7.50;99.90
58469;DHT22;44257;44.804;10.220;2023-02-26T04:30:18;7.30;99.90
58469;DHT22;44257;44.804;10.220;2023-02-26T04:32:44;7.20;99.90
58469;DHT22;44257;44.804;10.220;2023-02-26T04:35:12;7.00;99.90
58469;DHT22;44257;44.804;10.220;2023-02-26T04:37:38;7.00;99.90
58469;DHT22;44257;44.804;10.220;2023-02-26T04:40:04;6.80;99.90
58469;DHT22;44257;44.804;10.220;2023-02-26T04:42:30;6.80;99.90
58469;DHT22;44257;44.804;10.220;2023-02-26T04:44:56;6.70;99.90
58469;DHT22;44257;44.804;10.220;2023-02-26T04:47:24;6.50;99.90
58469;DHT22;44257;44.804;10.220;2023-02-26T04:49:50;6.40;99.90
58469;DHT22;44257;44.804;10.220;2023-02-26T04:52:19;6.40;99.90
58469;DHT22;44257;44.804;10.220;2023-02-26T04:54:45;6.30;99.90
58469;DHT22;44257;44.804;10.220;2023-02-26T04:57:13;6.40;99.90
58469;DHT22;44257;44.804;10.220;2023-02-26T04:59:39;6.30;99.90
58469;DHT22;44257;44.804;10.220;2023-02-26T05:02:05;6.30;99.90
58469;DHT22;44257;44.804;10.220;2023-02-26T05:04:35;6.20;99.90
58469;DHT22;44257;44.804;10.220;2023-02-26T05:07:01;6.10;99.90
58469;DHT22;44257;44.804;10.220;2023-02-26T05:09:26;6.00;99.90
58469;DHT22;44257;44.804;10.220;2023-02-26T05:11:52;5.90;99.90
58469;DHT22;44257;44.804;10.220;2023-02-26T05:14:18;5.90;99.90
58469;DHT22;44257;44.804;10.220;2023-02-26T05:16:47;5.90;99.90
58469;DHT22;44257;44.804;10.220;2023-02-26T05:19:13;5.80;99.90
58469;DHT22;44257;44.804;10.220;2023-02-26T05:21:40;5.80;99.90
58469;DHT22;44257;44.804;10.220;2023-02-26T05:24:06;5.80;99.90
58469;DHT22;44257;44.804;10.220;2023-02-26T05:26:32;5.80;99.90
58469;DHT22;44257;44.804;10.220;2023-02-26T05:28:57;5.80;99.90
58469;DHT22;44257;44.804;10.220;2023-02-26T05:31:23;5.80;99.90
58469;DHT22;44257;44.804;10.220;2023-02-26T05:33:51;5.80;99.90
58469;DHT22;44257;44.804;10.220;2023-02-26T05:36:17;5.80;99.90
58469;DHT22;44257;44.804;10.220;2023-02-26T05:38:43;5.80;99.90
58469;DHT22;44257;44.804;10.220;2023-02-26T05:41:09;5.80;99.90
58469;DHT22;44257;44.804;10.220;2023-02-26T05:43:35;5.80;99.90
58469;DHT22;44257;44.804;10.220;2023-02-26T05:46:01;5.80;99.90
58469;DHT22;44257;44.804;10.220;2023-02-26T05:48:27;5.80;99.90
58469;DHT22;44257;44.804;10.220;2023-02-26T05:50:53;5.80;99.90
58469;DHT22;44257;44.804;10.220;2023-02-26T05:53:19;5.80;99.90
58469;DHT22;44257;44.804;10.220;2023-02-26T05:55:45;5.80;99.90
58469;DHT22;44257;44.804;10.220;2023-02-26T05:58:11;5.80;99.90
58469;DHT22;44257;44.804;10.220;2023-02-26T06:00:37;5.80;99.90
58469;DHT22;44257;44.804;10.220;2023-02-26T06:03:03;5.80;99.90
58469;DHT22;44257;44.804;10.220;2023-02-26T06:05:29;5.80;99.90
58469;DHT22;44257;44.804;10.220;2023-02-26T06:07:54;5.80;99.90
58469;DHT22;44257;44.804;10.220;2023-02-26T06:10:20;5.80;99.90
58469;DHT22;44257;44.804;10.220;2023-02-26T06:12:46;5.80;99.90
58469;DHT22;44257;44.804;10.220;2023-02-26T06:15:12;5.80;99.90
58469;DHT22;44257;44.804;10.220;2023-02-26T06:17:38;5.90;99.90
58469;DHT22;44257;44.804;10.220;2023-02-26T06:20:11;5.80;99.90
58469;DHT22;44257;44.804;10.220;2023-02-26T06:22:37;5.70;99.90
58469;DHT22;44257;44.804;10.220;2023-02-26T06:25:03;5.60;99.90
58469;DHT22;44257;44.804;10.220;2023-02-26T06:27:30;5.50;99.90
58469;DHT22;44257;44.804;10.220;2023-02-26T06:29:55;5.50;99.90
58469;DHT22;44257;44.804;10.220;2023-02-26T06:32:21;5.40;99.90
58469;DHT22;44257;44.804;10.220;2023-02-26T06:34:47;5.30;99.90
58469;DHT22;44257;44.804;10.220;2023-02-26T06:37:13;5.30;99.90
58469;DHT22;44257;44.804;10.220;2023-02-26T06:39:39;5.20;99.90
58469;DHT22;44257;44.804;10.220;2023-02-26T06:42:05;5.20;99.90
58469;DHT22;44257;44.804;10.220;2023-02-26T06:44:31;5.10;99.90
58469;DHT22;44257;44.804;10.220;2023-02-26T06:46:57;5.00;99.90
58469;DHT22;44257;44.804;10.220;2023-02-26T06:49:23;5.00;99.90
58469;DHT22;44257;44.804;10.220;2023-02-26T06:51:48;5.00;99.90
58469;DHT22;44257;44.804;10.220;2023-02-26T06:54:14;5.00;99.90
58469;DHT22;44257;44.804;10.220;2023-02-26T06:56:40;5.00;99.90
58469;DHT22;44257;44.804;10.220;2023-02-26T06:59:06;5.00;99.90
58469;DHT22;44257;44.804;10.220;2023-02-26T07:01:32;5.00;99.90
58469;DHT22;44257;44.804;10.220;2023-02-26T07:03:58;5.00;99.90
58469;DHT22;44257;44.804;10.220;2023-02-26T07:06:23;5.00;99.90
58469;DHT22;44257;44.804;10.220;2023-02-26T07:08:49;4.90;99.90
58469;DHT22;44257;44.804;10.220;2023-02-26T07:11:15;5.00;99.90
58469;DHT22;44257;44.804;10.220;2023-02-26T07:13:41;5.00;99.90
58469;DHT22;44257;44.804;10.220;2023-02-26T07:16:07;5.00;99.90
58469;DHT22;44257;44.804;10.220;2023-02-26T07:18:33;5.00;99.90
58469;DHT22;44257;44.804;10.220;2023-02-26T07:21:00;5.00;99.90
58469;DHT22;44257;44.804;10.220;2023-02-26T07:23:26;5.00;99.90
58469;DHT22;44257;44.804;10.220;2023-02-26T07:25:52;5.00;99.90
58469;DHT22;44257;44.804;10.220;2023-02-26T07:28:17;5.00;99.90
58469;DHT22;44257;44.804;10.220;2023-02-26T07:30:45;5.00;99.90
58469;DHT22;44257;44.804;10.220;2023-02-26T07:33:11;5.00;99.90
58469;DHT22;44257;44.804;10.220;2023-02-26T07:35:38;5.00;99.90
58469;DHT22;44257;44.804;10.220;2023-02-26T07:38:04;5.00;99.90
58469;DHT22;44257;44.804;10.220;2023-02-26T07:40:30;5.00;99.90
58469;DHT22;44257;44.804;10.220;2023-02-26T07:42:56;5.00;99.90
58469;DHT22;44257;44.804;10.220;2023-02-26T07:45:22;5.00;99.90
58469;DHT22;44257;44.804;10.220;2023-02-26T07:47:49;5.00;99.90
58469;DHT22;44257;44.804;10.220;2023-02-26T07:50:15;4.90;99.90
58469;DHT22;44257;44.804;10.220;2023-02-26T07:52:41;4.90;99.90
58469;DHT22;44257;44.804;10.220;2023-02-26T07:55:08;4.90;99.90
58469;DHT22;44257;44.804;10.220;2023-02-26T07:57:34;4.90;99.90
58469;DHT22;44257;44.804;10.220;2023-02-26T08:00:00;4.90;99.90
58469;DHT22;44257;44.804;10.220;2023-02-26T08:02:26;4.90;99.90
58469;DHT22;44257;44.804;10.220;2023-02-26T08:04:51;4.90;99.90
58469;DHT22;44257;44.804;10.220;2023-02-26T08:07:18;5.00;99.90
58469;DHT22;44257;44.804;10.220;2023-02-26T08:09:44;5.00;99.90
58469;DHT22;44257;44.804;10.220;2023-02-26T08:12:10;5.00;99.90
58469;DHT22;44257;44.804;10.220;2023-02-26T08:14:36;5.00;99.90
58469;DHT22;44257;44.804;10.220;2023-02-26T08:17:01;5.00;99.90
58469;DHT22;44257;44.804;10.220;2023-02-26T08:19:27;5.00;99.90
58469;DHT22;44257;44.804;10.220;2023-02-26T08:21:53;5.00;99.90
58469;DHT22;44257;44.804;10.220;2023-02-26T08:24:21;5.00;99.90
58469;DHT22;44257;44.804;10.220;2023-02-26T08:26:47;5.00;99.90
58469;DHT22;44257;44.804;10.220;2023-02-26T08:29:13;5.00;99.90
58469;DHT22;44257;44.804;10.220;2023-02-26T08:31:39;5.10;99.90
58469;DHT22;44257;44.804;10.220;2023-02-26T08:34:04;5.10;99.90
58469;DHT22;44257;44.804;10.220;2023-02-26T08:36:31;5.10;99.90
58469;DHT22;44257;44.804;10.220;2023-02-26T08:38:57;5.20;99.90
58469;DHT22;44257;44.804;10.220;2023-02-26T08:41:24;5.20;99.90
58469;DHT22;44257;44.804;10.220;2023-02-26T08:43:52;5.20;99.90
58469;DHT22;44257;44.804;10.220;2023-02-26T08:46:18;5.20;99.90
58469;DHT22;44257;44.804;10.220;2023-02-26T08:48:43;5.20;99.90
58469;DHT22;44257;44.804;10.220;2023-02-26T08:51:09;5.20;99.90
58469;DHT22;44257;44.804;10.220;2023-02-26T08:53:36;5.30;99.90
58469;DHT22;44257;44.804;10.220;2023-02-26T08:56:01;5.30;99.90
58469;DHT22;44257;44.804;10.220;2023-02-26T08:58:27;5.30;99.90
58469;DHT22;44257;44.804;10.220;2023-02-26T09:00:53;5.40;99.90
58469;DHT22;44257;44.804;10.220;2023-02-26T09:03:19;5.30;99.90
58469;DHT22;44257;44.804;10.220;2023-02-26T09:05:45;5.40;99.90
58469;DHT22;44257;44.804;10.220;2023-02-26T09:08:10;5.40;99.90
58469;DHT22;44257;44.804;10.220;2023-02-26T09:10:39;5.40;99.90
58469;DHT22;44257;44.804;10.220;2023-02-26T09:13:05;5.40;99.90
58469;DHT22;44257;44.804;10.220;2023-02-26T09:15:31;5.40;99.90
58469;DHT22;44257;44.804;10.220;2023-02-26T09:17:58;5.50;99.90
58469;DHT22;44257;44.804;10.220;2023-02-26T09:20:24;5.50;99.90
58469;DHT22;44257;44.804;10.220;2023-02-26T09:22:50;5.50;99.90
58469;DHT22;44257;44.804;10.220;2023-02-26T09:25:15;5.60;99.90
58469;DHT22;44257;44.804;10.220;2023-02-26T09:27:41;5.70;99.90
58469;DHT22;44257;44.804;10.220;2023-02-26T09:30:08;5.70;99.90
58469;DHT22;44257;44.804;10.220;2023-02-26T09:32:34;5.70;99.90
58469;DHT22;44257;44.804;10.220;2023-02-26T09:34:59;5.70;99.90
58469;DHT22;44257;44.804;10.220;2023-02-26T09:37:25;5.60;99.90
58469;DHT22;44257;44.804;10.220;2023-02-26T09:39:51;5.60;99.90
58469;DHT22;44257;44.804;10.220;2023-02-26T09:45:28;5.60;99.90
58469;DHT22;44257;44.804;10.220;2023-02-26T09:47:55;5.70;99.90
58469;DHT22;44257;44.804;10.220;2023-02-26T09:50:24;5.80;99.90
58469;DHT22;44257;44.804;10.220;2023-02-26T09:53:01;5.80;99.90
58469;DHT22;44257;44.804;10.220;2023-02-26T09:55:35;5.90;99.90
58469;DHT22;44257;44.804;10.220;2023-02-26T09:58:10;5.90;99.90
58469;DHT22;44257;44.804;10.220;2023-02-26T10:00:46;5.90;99.90
58469;DHT22;44257;44.804;10.220;2023-02-26T10:03:35;6.00;99.90
58469;DHT22;44257;44.804;10.220;2023-02-26T10:06:24;6.00;99.90
58469;DHT22;44257;44.804;10.220;2023-02-26T10:11:25;5.90;99.90
58469;DHT22;44257;44.804;10.220;2023-02-26T10:14:02;5.90;99.90
58469;DHT22;44257;44.804;10.220;2023-02-26T10:16:34;5.90;99.90
58469;DHT22;44257;44.804;10.220;2023-02-26T10:19:15;5.80;99.90
58469;DHT22;44257;44.804;10.220;2023-02-26T10:22:00;5.70;99.90
58469;DHT22;44257;44.804;10.220;2023-02-26T10:24:48;5.60;99.90
58469;DHT22;44257;44.804;10.220;2023-02-26T10:27:20;5.50;99.90
58469;DHT22;44257;44.804;10.220;2023-02-26T10:29:53;5.40;99.90
58469;DHT22;44257;44.804;10.220;2023-02-26T10:35:16;5.30;99.90
58469;DHT22;44257;44.804;10.220;2023-02-26T10:40:35;5.20;99.90
58469;DHT22;44257;44.804;10.220;2023-02-26T10:52:59;5.40;99.90
58469;DHT22;44257;44.804;10.220;2023-02-26T10:55:50;5.50;99.90
58469;DHT22;44257;44.804;10.220;2023-02-26T10:59:05;5.50;99.90
58469;DHT22;44257;44.804;10.220;2023-02-26T11:05:39;5.80;99.90
58469;DHT22;44257;44.804;10.220;2023-02-26T11:11:51;6.00;99.90
58469;DHT22;44257;44.804;10.220;2023-02-26T11:14:56;6.10;99.90
58469;DHT22;44257;44.804;10.220;2023-02-26T11:17:34;6.30;99.90
58469;DHT22;44257;44.804;10.220;2023-02-26T11:20:48;6.30;99.90
58469;DHT22;44257;44.804;10.220;2023-02-26T11:23:40;6.30;99.90
58469;DHT22;44257;44.804;10.220;2023-02-26T11:26:38;6.20;99.90
58469;DHT22;44257;44.804;10.220;2023-02-26T11:30:14;6.20;99.90
58469;DHT22;44257;44.804;10.220;2023-02-26T11:32:36;6.00;99.90
58469;DHT22;44257;44.804;10.220;2023-02-26T11:35:03;6.00;99.90
58469;DHT22;44257;44.804;10.220;2023-02-26T11:37:39;6.00;99.90
58469;DHT22;44257;44.804;10.220;2023-02-26T11:40:17;5.90;99.90
58469;DHT22;44257;44.804;10.220;2023-02-26T11:42:58;5.80;99.90
58469;DHT22;44257;44.804;10.220;2023-02-26T11:45:24;5.80;99.90
58469;DHT22;44257;44.804;10.220;2023-02-26T11:50:22;5.70;99.90
58469;DHT22;44257;44.804;10.220;2023-02-26T11:52:55;5.60;99.90
58469;DHT22;44257;44.804;10.220;2023-02-26T11:55:43;5.60;99.90
58469;DHT22;44257;44.804;10.220;2023-02-26T11:58:20;5.60;99.90
58469;DHT22;44257;44.804;10.220;2023-02-26T12:00:47;5.70;99.90
58469;DHT22;44257;44.804;10.220;2023-02-26T12:03:20;5.70;99.90
58469;DHT22;44257;44.804;10.220;2023-02-26T12:05:48;5.70;99.90
58469;DHT22;44257;44.804;10.220;2023-02-26T12:11:36;5.60;99.90
58469;DHT22;44257;44.804;10.220;2023-02-26T12:13:56;5.60;99.90
58469;DHT22;44257;44.804;10.220;2023-02-26T12:19:09;5.70;99.90
58469;DHT22;44257;44.804;10.220;2023-02-26T12:21:51;5.70;99.90
58469;DHT22;44257;44.804;10.220;2023-02-26T12:30:07;5.80;99.90
58469;DHT22;44257;44.804;10.220;2023-02-26T12:43:48;6.00;99.90
58469;DHT22;44257;44.804;10.220;2023-02-26T12:52:24;6.20;99.90
58469;DHT22;44257;44.804;10.220;2023-02-26T13:07:00;6.30;99.90
58469;DHT22;44257;44.804;10.220;2023-02-26T13:09:07;6.30;99.90
58469;DHT22;44257;44.804;10.220;2023-02-26T13:17:11;6.30;99.90
58469;DHT22;44257;44.804;10.220;2023-02-26T13:19:51;6.30;99.90
58469;DHT22;44257;44.804;10.220;2023-02-26T13:22:23;6.30;99.90
58469;DHT22;44257;44.804;10.220;2023-02-26T13:25:04;6.30;99.90
58469;DHT22;44257;44.804;10.220;2023-02-26T13:27:33;6.20;99.90
58469;DHT22;44257;44.804;10.220;2023-02-26T13:32:44;6.30;99.90
58469;DHT22;44257;44.804;10.220;2023-02-26T13:35:19;6.30;99.90
58469;DHT22;44257;44.804;10.220;2023-02-26T13:37:49;6.30;99.90
58469;DHT22;44257;44.804;10.220;2023-02-26T13:40:37;6.40;99.90
58469;DHT22;44257;44.804;10.220;2023-02-26T13:43:29;6.30;99.90
58469;DHT22;44257;44.804;10.220;2023-02-26T13:46:27;6.30;99.90
58469;DHT22;44257;44.804;10.220;2023-02-26T13:48:59;6.20;99.90
58469;DHT22;44257;44.804;10.220;2023-02-26T13:51:46;6.20;99.90
58469;DHT22;44257;44.804;10.220;2023-02-26T14:12:03;5.60;99.90
58469;DHT22;44257;44.804;10.220;2023-02-26T14:17:26;5.50;99.90
58469;DHT22;44257;44.804;10.220;2023-02-26T14:27:39;5.50;99.90
58469;DHT22;44257;44.804;10.220;2023-02-26T14:37:47;5.50;99.90
58469;DHT22;44257;44.804;10.220;2023-02-26T14:40:19;5.50;99.90
58469;DHT22;44257;44.804;10.220;2023-02-26T14:42:59;5.40;99.90
58469;DHT22;44257;44.804;10.220;2023-02-26T14:45:38;5.30;99.90
58469;DHT22;44257;44.804;10.220;2023-02-26T14:48:12;5.30;99.90
58469;DHT22;44257;44.804;10.220;2023-02-26T14:59:16;5.40;99.90
58469;DHT22;44257;44.804;10.220;2023-02-26T15:05:01;5.40;99.90
58469;DHT22;44257;44.804;10.220;2023-02-26T15:12:59;5.30;99.90
58469;DHT22;44257;44.804;10.220;2023-02-26T15:21:16;5.20;99.90
58469;DHT22;44257;44.804;10.220;2023-02-26T15:23:50;5.20;99.90
58469;DHT22;44257;44.804;10.220;2023-02-26T15:26:25;5.20;99.90
58469;DHT22;44257;44.804;10.220;2023-02-26T15:28:52;5.20;99.90
58469;DHT22;44257;44.804;10.220;2023-02-26T15:31:20;5.20;99.90
58469;DHT22;44257;44.804;10.220;2023-02-26T15:33:54;5.20;99.90
58469;DHT22;44257;44.804;10.220;2023-02-26T15:36:21;5.30;99.90
58469;DHT22;44257;44.804;10.220;2023-02-26T15:39:00;5.30;99.90
58469;DHT22;44257;44.804;10.220;2023-02-26T15:41:30;5.20;99.90
58469;DHT22;44257;44.804;10.220;2023-02-26T15:44:01;5.20;99.90
58469;DHT22;44257;44.804;10.220;2023-02-26T15:46:31;5.20;99.90
58469;DHT22;44257;44.804;10.220;2023-02-26T15:49:06;5.20;99.90
58469;DHT22;44257;44.804;10.220;2023-02-26T15:51:32;5.10;99.90
58469;DHT22;44257;44.804;10.220;2023-02-26T15:53:59;5.10;99.90
58469;DHT22;44257;44.804;10.220;2023-02-26T15:56:34;5.10;99.90
58469;DHT22;44257;44.804;10.220;2023-02-26T15:59:05;5.10;99.90
58469;DHT22;44257;44.804;10.220;2023-02-26T16:01:33;5.10;99.90
58469;DHT22;44257;44.804;10.220;2023-02-26T16:04:04;5.10;99.90
58469;DHT22;44257;44.804;10.220;2023-02-26T16:06:37;5.00;99.90
58469;DHT22;44257;44.804;10.220;2023-02-26T16:09:06;5.00;99.90
58469;DHT22;44257;44.804;10.220;2023-02-26T16:11:35;5.00;99.90
58469;DHT22;44257;44.804;10.220;2023-02-26T16:14:04;5.00;99.90
58469;DHT22;44257;44.804;10.220;2023-02-26T16:17:00;5.00;99.90
58469;DHT22;44257;44.804;10.220;2023-02-26T16:19:33;5.00;99.90
58469;DHT22;44257;44.804;10.220;2023-02-26T16:22:14;5.00;99.90
58469;DHT22;44257;44.804;10.220;2023-02-26T16:24:41;5.00;99.90
58469;DHT22;44257;44.804;10.220;2023-02-26T16:27:11;5.00;99.90
58469;DHT22;44257;44.804;10.220;2023-02-26T16:29:54;5.00;99.90
58469;DHT22;44257;44.804;10.220;2023-02-26T16:32:21;4.90;99.90
58469;DHT22;44257;44.804;10.220;2023-02-26T16:34:58;4.90;99.90
58469;DHT22;44257;44.804;10.220;2023-02-26T16:45:47;4.90;99.90
58469;DHT22;44257;44.804;10.220;2023-02-26T16:48:25;4.90;99.90
58469;DHT22;44257;44.804;10.220;2023-02-26T16:50:57;4.90;99.90
58469;DHT22;44257;44.804;10.220;2023-02-26T16:53:34;4.80;99.90
58469;DHT22;44257;44.804;10.220;2023-02-26T16:56:01;4.80;99.90
58469;DHT22;44257;44.804;10.220;2023-02-26T16:58:29;4.80;99.90
58469;DHT22;44257;44.804;10.220;2023-02-26T17:01:10;4.70;99.90
58469;DHT22;44257;44.804;10.220;2023-02-26T17:03:37;4.70;99.90
58469;DHT22;44257;44.804;10.220;2023-02-26T17:06:09;4.70;99.90
58469;DHT22;44257;44.804;10.220;2023-02-26T17:08:51;4.70;99.90
58469;DHT22;44257;44.804;10.220;2023-02-26T17:11:32;4.70;99.90
58469;DHT22;44257;44.804;10.220;2023-02-26T17:16:42;4.70;99.90
58469;DHT22;44257;44.804;10.220;2023-02-26T17:19:08;4.80;99.90
58469;DHT22;44257;44.804;10.220;2023-02-26T17:21:40;4.80;99.90
58469;DHT22;44257;44.804;10.220;2023-02-26T17:24:07;4.80;99.90
58469;DHT22;44257;44.804;10.220;2023-02-26T17:26:33;4.80;99.90
58469;DHT22;44257;44.804;10.220;2023-02-26T17:28:59;4.80;99.90
58469;DHT22;44257;44.804;10.220;2023-02-26T17:31:25;4.70;99.90
58469;DHT22;44257;44.804;10.220;2023-02-26T17:33:51;4.70;99.90
58469;DHT22;44257;44.804;10.220;2023-02-26T17:36:18;4.70;99.90
58469;DHT22;44257;44.804;10.220;2023-02-26T17:38:45;4.70;99.90
58469;DHT22;44257;44.804;10.220;2023-02-26T17:41:18;4.70;99.90
58469;DHT22;44257;44.804;10.220;2023-02-26T17:43:44;4.70;99.90
58469;DHT22;44257;44.804;10.220;2023-02-26T17:46:11;4.70;99.90
58469;DHT22;44257;44.804;10.220;2023-02-26T17:48:37;4.70;99.90
58469;DHT22;44257;44.804;10.220;2023-02-26T17:51:03;4.70;99.90
58469;DHT22;44257;44.804;10.220;2023-02-26T17:53:29;4.50;99.90
58469;DHT22;44257;44.804;10.220;2023-02-26T17:56:27;4.20;99.90
58469;DHT22;44257;44.804;10.220;2023-02-26T17:58:54;4.00;99.90
58469;DHT22;44257;44.804;10.220;2023-02-26T18:01:21;3.80;99.90
58469;DHT22;44257;44.804;10.220;2023-02-26T18:03:48;3.70;99.90
58469;DHT22;44257;44.804;10.220;2023-02-26T18:06:14;3.70;99.90
58469;DHT22;44257;44.804;10.220;2023-02-26T18:08:41;4.00;99.90
58469;DHT22;44257;44.804;10.220;2023-02-26T18:11:10;4.00;99.90
58469;DHT22;44257;44.804;10.220;2023-02-26T18:13:37;3.90;99.90
58469;DHT22;44257;44.804;10.220;2023-02-26T18:16:03;3.80;99.90
58469;DHT22;44257;44.804;10.220;2023-02-26T18:18:30;3.70;99.90
58469;DHT22;44257;44.804;10.220;2023-02-26T18:20:57;3.70;99.90
58469;DHT22;44257;44.804;10.220;2023-02-26T18:23:23;3.60;99.90
58469;DHT22;44257;44.804;10.220;2023-02-26T18:25:52;3.50;99.90
58469;DHT22;44257;44.804;10.220;2023-02-26T18:28:24;3.40;99.90
58469;DHT22;44257;44.804;10.220;2023-02-26T18:30:51;3.40;99.90
58469;DHT22;44257;44.804;10.220;2023-02-26T18:33:18;3.30;99.90
58469;DHT22;44257;44.804;10.220;2023-02-26T18:35:45;3.30;99.90
58469;DHT22;44257;44.804;10.220;2023-02-26T18:38:13;3.20;99.90
58469;DHT22;44257;44.804;10.220;2023-02-26T18:40:40;3.20;99.90
58469;DHT22;44257;44.804;10.220;2023-02-26T18:43:06;3.20;99.90
58469;DHT22;44257;44.804;10.220;2023-02-26T18:45:32;3.20;99.90
58469;DHT22;44257;44.804;10.220;2023-02-26T18:47:58;3.20;99.90
58469;DHT22;44257;44.804;10.220;2023-02-26T18:50:24;3.20;99.90
58469;DHT22;44257;44.804;10.220;2023-02-26T18:52:50;3.30;99.90
58469;DHT22;44257;44.804;10.220;2023-02-26T18:55:16;3.20;99.90
58469;DHT22;44257;44.804;10.220;2023-02-26T18:57:41;3.30;99.90
58469;DHT22;44257;44.804;10.220;2023-02-26T19:00:10;3.20;99.90